Time;durP1;ratioP1;P1;durP2;ratioP2;P2;SDS_P1;SDS_P2;PMS_P1;PMS_P2;Temp;Humidity;BMP_temperature;BMP_pressure;BME280_temperature;BME280_humidity;BME280_pressure;Samples;Min_cycle;Max_cycle;Signal;HPM_P1;HPM_P2
2023/02/01 00:01:41;;;;;;;7.70;5.00;;;5.20;79.30;;;;;;5022315;28;20090;-60
2023/02/01 00:04:07;;;;;;;5.75;4.53;;;5.20;79.30;;;;;;5030960;28;20130;-60
2023/02/01 00:06:32;;;;;;;7.03;4.75;;;5.30;79.20;;;;;;5023866;28;20072;-60
2023/02/01 00:08:58;;;;;;;7.13;4.75;;;5.30;79.20;;;;;;5023523;28;20029;-62
2023/02/01 00:11:24;;;;;;;7.50;5.00;;;5.30;79.20;;;;;;5021841;28;20029;-61
2023/02/01 00:13:49;;;;;;;8.25;5.30;;;5.30;79.20;;;;;;5023900;28;20053;-60
2023/02/01 00:16:26;;;;;;;7.05;4.68;;;5.30;79.30;;;;;;5023954;28;20058;-60
2023/02/01 00:19:01;;;;;;;8.50;5.07;;;5.30;79.40;;;;;;5021810;28;20506;-60
2023/02/01 00:21:27;;;;;;;9.98;5.60;;;5.30;79.30;;;;;;5025549;28;20500;-59
2023/02/01 00:23:53;;;;;;;7.50;4.97;;;5.30;79.40;;;;;;5021822;28;20052;-61
2023/02/01 00:26:41;;;;;;;8.13;5.57;;;5.30;79.40;;;;;;5030370;28;20500;-60
2023/02/01 00:29:15;;;;;;;7.40;5.03;;;5.30;79.70;;;;;;5023213;28;20505;-60
2023/02/01 00:31:41;;;;;;;8.48;5.07;;;5.30;79.50;;;;;;5022342;28;20029;-59
2023/02/01 00:34:07;;;;;;;7.05;5.10;;;5.30;79.50;;;;;;5024318;28;20190;-60
2023/02/01 00:36:33;;;;;;;8.93;5.38;;;5.20;79.50;;;;;;5022285;28;20520;-59
2023/02/01 00:38:58;;;;;;;9.25;5.65;;;5.30;79.50;;;;;;5028514;28;20041;-61
2023/02/01 00:41:24;;;;;;;6.63;4.90;;;5.20;80.20;;;;;;5023677;28;20508;-59
2023/02/01 00:43:50;;;;;;;8.35;5.32;;;5.30;79.50;;;;;;5025708;28;20061;-62
2023/02/01 00:46:18;;;;;;;6.93;5.32;;;5.30;79.50;;;;;;5027680;28;20048;-60
2023/02/01 00:48:43;;;;;;;7.38;5.10;;;5.20;79.40;;;;;;5026224;28;20101;-60
2023/02/01 00:51:15;;;;;;;7.30;5.30;;;5.20;79.50;;;;;;5025248;28;20045;-60
2023/02/01 00:53:41;;;;;;;7.88;5.05;;;5.20;79.50;;;;;;5030286;28;20413;-61
2023/02/01 00:56:08;;;;;;;8.60;5.90;;;5.30;79.50;;;;;;5033660;28;20025;-61
2023/02/01 00:58:34;;;;;;;8.35;5.82;;;5.20;79.60;;;;;;5025735;28;20033;-60
2023/02/01 01:01:16;;;;;;;8.88;5.47;;;5.20;79.60;;;;;;5029702;28;20624;-61
2023/02/01 01:03:44;;;;;;;8.40;5.70;;;5.20;79.80;;;;;;5028110;28;20082;-62
2023/02/01 01:06:18;;;;;;;9.05;5.60;;;5.20;80.50;;;;;;5031261;28;20521;-60
2023/02/01 01:08:43;;;;;;;7.68;5.72;;;5.20;79.70;;;;;;5028147;28;20041;-61
2023/02/01 01:11:12;;;;;;;9.70;5.85;;;5.20;79.70;;;;;;5024094;28;20120;-60
2023/02/01 01:13:38;;;;;;;8.45;5.05;;;5.20;79.70;;;;;;5027060;28;20120;-61
2023/02/01 01:16:05;;;;;;;9.32;5.82;;;5.10;79.60;;;;;;5032683;28;20303;-61
2023/02/01 01:18:33;;;;;;;11.05;5.88;;;5.10;79.70;;;;;;5027422;28;20060;-60
2023/02/01 01:20:59;;;;;;;8.48;5.80;;;5.10;79.70;;;;;;5033549;28;20436;-60
2023/02/01 01:23:25;;;;;;;9.25;6.38;;;5.10;79.70;;;;;;5031607;28;20041;-60
2023/02/01 01:25:51;;;;;;;7.57;5.35;;;5.10;79.70;;;;;;5032023;28;20026;-60
2023/02/01 01:28:16;;;;;;;6.63;5.28;;;5.10;79.80;;;;;;5026983;28;20123;-60
2023/02/01 01:30:42;;;;;;;7.72;5.55;;;5.10;79.80;;;;;;5028961;28;20068;-61
2023/02/01 01:33:08;;;;;;;6.32;5.32;;;5.00;79.70;;;;;;5025904;28;20044;-61
2023/02/01 01:35:34;;;;;;;7.93;5.43;;;5.00;79.80;;;;;;5029300;28;20040;-61
2023/02/01 01:38:00;;;;;;;7.10;5.30;;;5.00;79.90;;;;;;5026240;28;20531;-62
2023/02/01 01:40:28;;;;;;;7.63;5.70;;;5.00;79.90;;;;;;5028304;28;20552;-60
2023/02/01 01:42:55;;;;;;;9.55;5.35;;;5.00;80.00;;;;;;5026204;28;20041;-60
2023/02/01 01:45:22;;;;;;;9.43;5.93;;;4.90;80.00;;;;;;5029493;28;20103;-60
2023/02/01 01:47:56;;;;;;;7.93;5.25;;;4.90;80.20;;;;;;5028958;28;20043;-60
2023/02/01 01:50:27;;;;;;;6.75;5.03;;;4.90;80.30;;;;;;5029291;28;20532;-59
2023/02/01 01:52:55;;;;;;;5.85;4.95;;;4.90;80.30;;;;;;5024670;28;20057;-60
2023/02/01 01:55:24;;;;;;;8.85;5.43;;;4.90;80.50;;;;;;5028013;28;20543;-60
2023/02/01 01:57:59;;;;;;;8.13;4.78;;;4.90;80.50;;;;;;5030117;28;20068;-60
2023/02/01 02:00:25;;;;;;;7.63;5.22;;;4.90;80.70;;;;;;5024916;28;20459;-60
2023/02/01 02:02:57;;;;;;;7.22;4.95;;;4.90;80.60;;;;;;5023880;28;20041;-60
2023/02/01 02:05:22;;;;;;;7.07;4.82;;;4.90;80.80;;;;;;5025952;28;20057;-60
2023/02/01 02:07:50;;;;;;;8.90;5.28;;;4.90;80.70;;;;;;5027399;28;20083;-60
2023/02/01 02:10:17;;;;;;;6.38;5.07;;;4.90;80.80;;;;;;5026579;28;20135;-60
2023/02/01 02:12:46;;;;;;;8.13;5.00;;;4.90;80.80;;;;;;5020351;28;20029;-60
2023/02/01 02:15:14;;;;;;;6.38;4.53;;;4.90;80.80;;;;;;5031305;28;20033;-60
2023/02/01 02:18:03;;;;;;;6.85;4.60;;;4.90;80.70;;;;;;5031013;28;21159;-61
2023/02/01 02:20:52;;;;;;;6.75;4.90;;;4.90;80.80;;;;;;5027840;28;20037;-60
2023/02/01 02:23:43;;;;;;;6.18;4.32;;;4.90;80.80;;;;;;5026742;28;20045;-61
2023/02/01 02:26:39;;;;;;;8.23;4.65;;;4.90;81.60;;;;;;5024866;28;20409;-62
2023/02/01 02:29:38;;;;;;;7.80;4.65;;;4.90;80.70;;;;;;5025149;28;20042;-60
2023/02/01 02:32:15;;;;;;;7.40;4.47;;;4.90;80.80;;;;;;5025765;28;20061;-61
2023/02/01 02:35:06;;;;;;;5.55;3.92;;;4.90;80.70;;;;;;5026630;28;20041;-60
2023/02/01 02:37:40;;;;;;;8.40;5.15;;;4.90;80.80;;;;;;5026833;28;20037;-61
2023/02/01 02:40:10;;;;;;;5.90;4.47;;;4.90;80.70;;;;;;5028987;28;20128;-60
2023/02/01 02:48:33;;;;;;;4.85;4.05;;;4.90;80.90;;;;;;5030046;28;20053;-61
2023/02/01 03:05:11;;;;;;;7.05;4.10;;;4.90;80.90;;;;;;5025259;28;20248;-60
2023/02/01 03:08:00;;;;;;;6.75;3.83;;;4.90;80.90;;;;;;5023381;28;20038;-60
2023/02/01 03:10:47;;;;;;;4.97;4.00;;;4.90;81.10;;;;;;5027550;28;20041;-61
2023/02/01 03:13:25;;;;;;;6.97;3.83;;;4.90;81.10;;;;;;5026307;28;20438;-61
2023/02/01 03:15:50;;;;;;;7.05;4.35;;;4.90;81.00;;;;;;5029790;28;20072;-61
2023/02/01 03:18:32;;;;;;;4.70;3.78;;;4.90;80.90;;;;;;5025032;28;20045;-60
2023/02/01 03:21:00;;;;;;;4.97;3.78;;;4.90;81.00;;;;;;5024749;28;20076;-60
2023/02/01 03:23:31;;;;;;;6.22;3.72;;;4.90;80.90;;;;;;5023857;28;20035;-60
2023/02/01 03:25:59;;;;;;;5.45;3.78;;;4.90;80.90;;;;;;5024310;28;20056;-61
2023/02/01 03:28:27;;;;;;;7.20;4.10;;;4.90;80.90;;;;;;5022568;28;20573;-61
2023/02/01 03:30:53;;;;;;;6.20;4.20;;;5.00;80.90;;;;;;5025553;28;20040;-60
2023/02/01 03:33:22;;;;;;;5.10;4.10;;;4.90;80.80;;;;;;5026988;28;20041;-61
2023/02/01 03:35:55;;;;;;;5.65;4.07;;;4.90;80.80;;;;;;5023143;28;20574;-60
2023/02/01 03:38:39;;;;;;;5.78;4.07;;;4.90;80.80;;;;;;5028582;28;20041;-61
2023/02/01 03:41:20;;;;;;;7.57;3.72;;;4.90;81.00;;;;;;5027461;28;20053;-59
2023/02/01 03:43:54;;;;;;;5.55;3.85;;;4.90;81.00;;;;;;5026399;28;20076;-60
2023/02/01 03:46:32;;;;;;;6.05;3.75;;;4.90;80.80;;;;;;5026987;28;20635;-60
2023/02/01 03:49:03;;;;;;;4.68;3.85;;;4.90;80.90;;;;;;5025286;28;20126;-60
2023/02/01 03:51:30;;;;;;;6.00;3.85;;;4.90;81.00;;;;;;5022899;28;20030;-59
2023/02/01 03:53:57;;;;;;;4.18;3.72;;;4.90;81.00;;;;;;5023404;28;20111;-60
2023/02/01 03:56:26;;;;;;;6.35;4.03;;;4.90;81.00;;;;;;5028002;28;20057;-61
2023/02/01 03:58:58;;;;;;;4.63;3.80;;;4.90;81.00;;;;;;5027585;28;20030;-60
2023/02/01 04:01:26;;;;;;;7.07;3.88;;;4.90;81.00;;;;;;5028224;28;20086;-60
2023/02/01 04:03:51;;;;;;;5.15;3.70;;;5.00;81.10;;;;;;5026970;28;20053;-58
2023/02/01 04:06:17;;;;;;;7.05;3.92;;;4.90;81.00;;;;;;5024011;28;20143;-60
2023/02/01 04:08:43;;;;;;;12.88;6.93;;;4.90;81.10;;;;;;5022279;28;20033;-59
2023/02/01 04:11:08;;;;;;;16.05;10.45;;;4.90;81.20;;;;;;5024036;28;20090;-61
2023/02/01 04:13:34;;;;;;;11.88;8.48;;;4.90;81.30;;;;;;5027824;28;20044;-59
2023/02/01 04:15:59;;;;;;;7.75;5.32;;;5.00;81.30;;;;;;5029554;28;20033;-60
2023/02/01 04:18:25;;;;;;;8.10;6.30;;;4.90;81.30;;;;;;5031764;28;20033;-59
2023/02/01 04:20:50;;;;;;;6.63;5.05;;;5.00;81.30;;;;;;5025501;28;20067;-61
2023/02/01 04:23:16;;;;;;;8.32;6.07;;;5.00;81.30;;;;;;5022228;28;20428;-60
2023/02/01 04:25:42;;;;;;;6.35;4.45;;;5.00;81.40;;;;;;5021031;28;20025;-60
2023/02/01 04:28:07;;;;;;;5.85;4.13;;;4.90;81.30;;;;;;5024633;28;20045;-61
2023/02/01 04:30:33;;;;;;;7.50;5.40;;;5.00;81.40;;;;;;5024274;28;20497;-60
2023/02/01 04:32:58;;;;;;;8.65;6.28;;;5.00;81.30;;;;;;5019851;28;20417;-60
2023/02/01 04:35:24;;;;;;;6.40;4.65;;;5.00;81.20;;;;;;5024999;28;20119;-59
2023/02/01 04:37:49;;;;;;;8.15;5.70;;;4.90;81.20;;;;;;5018348;28;20037;-61
2023/02/01 04:40:15;;;;;;;6.28;4.53;;;4.90;81.30;;;;;;5020332;28;20156;-61
2023/02/01 04:42:40;;;;;;;6.28;4.32;;;4.90;81.30;;;;;;5020423;28;20041;-61
2023/02/01 04:45:06;;;;;;;8.18;5.20;;;4.90;81.30;;;;;;5025770;28;20055;-60
2023/02/01 04:47:32;;;;;;;7.18;4.95;;;5.00;81.40;;;;;;5024645;28;20424;-59
2023/02/01 04:49:58;;;;;;;6.80;4.93;;;4.90;81.40;;;;;;5021549;28;20042;-60
2023/02/01 04:52:23;;;;;;;8.13;5.25;;;4.90;81.40;;;;;;5021903;28;20033;-61
2023/02/01 04:54:49;;;;;;;6.88;5.10;;;4.90;81.30;;;;;;5020822;28;20080;-61
2023/02/01 04:57:14;;;;;;;5.88;4.25;;;4.90;81.30;;;;;;5022938;28;20404;-60
2023/02/01 04:59:40;;;;;;;8.57;5.32;;;4.90;81.30;;;;;;5021793;28;20075;-61
2023/02/01 05:02:06;;;;;;;7.70;4.30;;;4.90;81.40;;;;;;5022892;28;20447;-60
2023/02/01 05:04:31;;;;;;;6.07;4.18;;;4.90;81.40;;;;;;5020618;28;20057;-59
2023/02/01 05:06:57;;;;;;;6.82;4.32;;;4.90;82.30;;;;;;5021734;28;20627;-61
2023/02/01 05:09:22;;;;;;;6.43;4.35;;;4.90;81.40;;;;;;5023118;28;20044;-59
2023/02/01 05:14:32;;;;;;;5.80;3.80;;;4.90;81.40;;;;;;5028834;28;20615;-58
2023/02/01 05:16:58;;;;;;;7.97;4.63;;;4.90;81.40;;;;;;5017701;28;20041;-59
2023/02/01 05:19:23;;;;;;;5.07;4.10;;;4.90;81.50;;;;;;5019165;28;20033;-60
2023/02/01 05:21:49;;;;;;;6.15;4.10;;;4.90;81.40;;;;;;5021963;28;20125;-60
2023/02/01 05:24:19;;;;;;;6.45;4.20;;;4.90;81.50;;;;;;5020184;28;20033;-60
2023/02/01 05:26:46;;;;;;;6.00;4.35;;;4.90;81.40;;;;;;5026850;28;20033;-59
2023/02/01 05:29:12;;;;;;;7.18;4.68;;;4.90;81.40;;;;;;5035488;28;20030;-61
2023/02/01 05:31:38;;;;;;;9.80;6.00;;;4.90;82.30;;;;;;5034171;28;20263;-60
2023/02/01 05:34:04;;;;;;;5.78;4.75;;;4.90;81.50;;;;;;5037036;28;20541;-61
2023/02/01 05:36:30;;;;;;;6.70;4.97;;;4.90;81.60;;;;;;5033575;28;20094;-60
2023/02/01 05:38:56;;;;;;;8.32;4.88;;;4.90;81.60;;;;;;5032790;28;20135;-60
2023/02/01 05:41:22;;;;;;;5.53;4.05;;;4.90;81.80;;;;;;5035421;28;20576;-58
2023/02/01 05:43:47;;;;;;;7.07;4.60;;;4.90;81.80;;;;;;5033821;28;20037;-61
2023/02/01 05:46:13;;;;;;;5.32;4.20;;;4.90;81.80;;;;;;5035421;28;20037;-60
2023/02/01 05:48:40;;;;;;;6.57;4.03;;;4.90;81.80;;;;;;5034843;28;20064;-60
2023/02/01 05:51:05;;;;;;;6.15;3.80;;;4.90;81.90;;;;;;5035097;28;20579;-60
2023/02/01 05:53:31;;;;;;;5.70;3.78;;;4.90;81.80;;;;;;5035711;28;20049;-60
2023/02/01 05:55:57;;;;;;;5.07;3.85;;;4.90;82.00;;;;;;5032963;28;20048;-61
2023/02/01 05:58:22;;;;;;;5.53;4.20;;;4.90;82.10;;;;;;5028673;28;20033;-60
2023/02/01 06:00:48;;;;;;;5.95;4.05;;;4.90;82.10;;;;;;5035492;28;20053;-61
2023/02/01 06:03:13;;;;;;;6.05;4.55;;;4.90;82.10;;;;;;5035419;28;20025;-60
2023/02/01 06:05:39;;;;;;;6.70;4.30;;;4.90;82.10;;;;;;5034717;28;20072;-60
2023/02/01 06:08:07;;;;;;;6.22;4.10;;;4.90;82.10;;;;;;5034185;28;20172;-61
2023/02/01 06:10:33;;;;;;;6.18;4.22;;;4.90;82.10;;;;;;5034791;28;20076;-60
2023/02/01 06:12:58;;;;;;;4.90;3.72;;;4.90;82.20;;;;;;5032674;28;20556;-61
2023/02/01 06:15:24;;;;;;;6.10;3.90;;;4.90;82.20;;;;;;5037522;28;20040;-60
2023/02/01 06:17:49;;;;;;;4.85;3.75;;;4.90;82.10;;;;;;5033730;28;20097;-61
2023/02/01 06:20:16;;;;;;;4.70;3.88;;;4.90;82.30;;;;;;5035579;28;20056;-60
2023/02/01 06:22:41;;;;;;;4.88;3.70;;;4.90;82.40;;;;;;5032621;28;20139;-61
2023/02/01 06:25:09;;;;;;;4.18;3.28;;;4.90;82.40;;;;;;5035409;28;20211;-61
2023/02/01 06:27:36;;;;;;;6.03;3.25;;;4.90;82.50;;;;;;5033736;28;20135;-61
2023/02/01 06:30:02;;;;;;;5.70;3.88;;;4.90;82.50;;;;;;5034703;28;20042;-60
2023/02/01 06:32:27;;;;;;;4.57;3.80;;;5.00;82.60;;;;;;5034830;28;20509;-60
2023/02/01 06:34:53;;;;;;;4.35;3.70;;;4.90;82.60;;;;;;5034319;28;20063;-61
2023/02/01 06:37:19;;;;;;;4.93;3.67;;;4.90;82.60;;;;;;5034892;28;20427;-61
2023/02/01 06:39:45;;;;;;;5.20;3.72;;;5.00;82.70;;;;;;5035027;28;20120;-61
2023/02/01 06:42:11;;;;;;;6.97;4.00;;;5.00;82.60;;;;;;5035991;28;20123;-61
2023/02/01 06:44:36;;;;;;;4.30;3.40;;;5.00;82.60;;;;;;5034237;28;20033;-60
2023/02/01 06:47:03;;;;;;;5.57;4.15;;;5.00;82.60;;;;;;5035780;28;20497;-60
2023/02/01 06:49:29;;;;;;;5.78;3.75;;;5.00;82.60;;;;;;5035808;28;20048;-61
2023/02/01 06:51:55;;;;;;;5.60;3.75;;;5.00;82.60;;;;;;5030666;28;20409;-60
2023/02/01 06:54:20;;;;;;;5.60;4.20;;;5.00;82.50;;;;;;5035657;28;20052;-59
2023/02/01 06:56:46;;;;;;;5.93;4.32;;;5.00;82.50;;;;;;5032863;28;20046;-61
2023/02/01 06:59:11;;;;;;;5.03;3.92;;;5.00;82.50;;;;;;5033081;28;20520;-61
2023/02/01 07:01:37;;;;;;;5.53;3.78;;;5.10;82.60;;;;;;5032699;28;20068;-60
2023/02/01 07:04:03;;;;;;;6.28;3.97;;;5.10;82.50;;;;;;5035018;28;20871;-60
2023/02/01 07:06:28;;;;;;;5.68;4.18;;;5.10;82.50;;;;;;5034247;28;20037;-62
2023/02/01 07:08:57;;;;;;;4.90;3.72;;;5.10;82.50;;;;;;5034917;28;20067;-61
2023/02/01 07:11:23;;;;;;;6.03;3.95;;;5.10;82.60;;;;;;5032288;28;20153;-61
2023/02/01 07:13:49;;;;;;;7.20;4.05;;;5.00;82.50;;;;;;5031703;28;20479;-60
2023/02/01 07:16:18;;;;;;;5.10;3.90;;;5.10;82.60;;;;;;5031701;28;20052;-60
2023/02/01 07:18:45;;;;;;;6.32;4.50;;;5.10;82.60;;;;;;5034363;28;20115;-62
2023/02/01 07:21:10;;;;;;;5.35;4.03;;;5.10;82.60;;;;;;5035244;28;20044;-61
2023/02/01 07:23:37;;;;;;;5.78;4.15;;;5.10;82.60;;;;;;5032742;28;20431;-61
2023/02/01 07:26:05;;;;;;;6.82;4.38;;;5.10;82.60;;;;;;5032388;28;20029;-61
2023/02/01 07:28:33;;;;;;;4.93;4.18;;;5.10;82.60;;;;;;5032666;28;20636;-60
2023/02/01 07:31:07;;;;;;;6.32;4.22;;;5.10;82.50;;;;;;5033023;28;20053;-59
2023/02/01 07:33:33;;;;;;;6.05;4.13;;;5.10;82.70;;;;;;5033635;28;20323;-60
2023/02/01 07:36:02;;;;;;;6.40;4.15;;;5.10;82.60;;;;;;5035519;28;20041;-60
2023/02/01 07:38:28;;;;;;;5.03;4.00;;;5.10;82.60;;;;;;5034345;28;20045;-60
2023/02/01 07:41:01;;;;;;;6.68;4.03;;;5.10;82.50;;;;;;5032036;28;20484;-60
2023/02/01 07:43:27;;;;;;;7.65;4.85;;;5.10;82.50;;;;;;5033388;28;20041;-61
2023/02/01 07:45:54;;;;;;;5.72;4.03;;;5.20;82.50;;;;;;5034620;28;20091;-59
2023/02/01 07:48:21;;;;;;;6.15;4.22;;;5.10;82.50;;;;;;5033211;28;20201;-60
2023/02/01 07:50:47;;;;;;;6.18;4.53;;;5.20;82.40;;;;;;5030683;28;20468;-60
2023/02/01 07:53:12;;;;;;;6.55;4.65;;;5.20;82.50;;;;;;5033171;28;20040;-58
2023/02/01 07:55:39;;;;;;;7.22;4.78;;;5.20;82.40;;;;;;5027824;28;20052;-60
2023/02/01 07:58:04;;;;;;;7.20;4.95;;;5.20;82.50;;;;;;5030548;28;20034;-61
2023/02/01 08:03:14;;;;;;;5.68;4.57;;;5.20;82.40;;;;;;5033319;28;20047;-60
2023/02/01 08:05:40;;;;;;;5.97;4.65;;;5.20;82.30;;;;;;5032772;28;20482;-60
2023/02/01 08:08:06;;;;;;;7.90;4.68;;;5.20;82.30;;;;;;5032919;28;20072;-60
2023/02/01 08:10:32;;;;;;;7.22;5.07;;;5.20;82.30;;;;;;5031859;28;20039;-59
2023/02/01 08:12:59;;;;;;;6.75;5.10;;;5.20;82.30;;;;;;5031969;28;20041;-60
2023/02/01 08:15:26;;;;;;;6.85;4.95;;;5.20;82.40;;;;;;5033494;28;20053;-60
2023/02/01 08:17:54;;;;;;;6.70;4.80;;;5.20;82.50;;;;;;5030955;28;20042;-59
2023/02/01 08:20:21;;;;;;;7.97;4.95;;;5.20;82.50;;;;;;5034177;28;20163;-60
2023/02/01 08:22:47;;;;;;;6.43;4.70;;;5.20;82.50;;;;;;5032827;28;20048;-60
2023/02/01 08:25:13;;;;;;;6.28;4.43;;;5.20;82.50;;;;;;5031544;28;20425;-59
2023/02/01 08:27:39;;;;;;;8.23;5.30;;;5.20;82.50;;;;;;5027715;28;20033;-60
2023/02/01 08:30:06;;;;;;;7.50;4.32;;;5.20;82.50;;;;;;5030607;28;21600;-59
2023/02/01 08:32:33;;;;;;;6.22;4.40;;;5.20;82.50;;;;;;5032321;28;20045;-58
2023/02/01 08:34:59;;;;;;;5.25;4.38;;;5.20;82.50;;;;;;5033902;28;20515;-60
2023/02/01 08:37:25;;;;;;;6.18;4.30;;;5.20;82.50;;;;;;5034511;28;20115;-60
2023/02/01 08:39:50;;;;;;;5.88;4.25;;;5.20;82.50;;;;;;5032445;28;20578;-60
2023/02/01 08:45:02;;;;;;;;;;;5.30;82.50;;;;;;5033770;28;20095;-60
2023/02/01 08:47:28;;;;;;;6.22;4.32;;;5.30;82.60;;;;;;5032140;28;20003;-61
2023/02/01 08:49:53;;;;;;;5.93;4.35;;;5.30;82.30;;;;;;5033341;28;20041;-62
2023/02/01 08:52:19;;;;;;;5.47;4.53;;;5.30;82.40;;;;;;5033768;28;20047;-61
2023/02/01 08:54:45;;;;;;;6.53;4.40;;;5.30;82.50;;;;;;5032667;28;20094;-61
2023/02/01 08:57:10;;;;;;;7.45;4.82;;;5.30;82.50;;;;;;5029560;28;20045;-61
2023/02/01 08:59:36;;;;;;;5.47;4.07;;;5.30;82.60;;;;;;5034913;28;20037;-60
2023/02/01 09:02:01;;;;;;;5.47;3.97;;;5.30;82.60;;;;;;5031781;28;20041;-62
2023/02/01 09:04:27;;;;;;;4.63;3.70;;;5.30;82.60;;;;;;5034221;28;20167;-61
2023/02/01 09:06:55;;;;;;;4.82;3.92;;;5.30;82.50;;;;;;5038255;28;20038;-59
2023/02/01 09:09:21;;;;;;;5.93;3.47;;;5.30;82.60;;;;;;5037182;28;20440;-61
2023/02/01 09:11:47;;;;;;;5.90;3.72;;;5.40;82.60;;;;;;5032872;28;20045;-60
2023/02/01 09:14:12;;;;;;;5.38;3.80;;;5.30;82.60;;;;;;5033616;28;20475;-61
2023/02/01 09:16:38;;;;;;;5.10;4.07;;;5.40;82.60;;;;;;5036470;28;20033;-59
2023/02/01 09:19:04;;;;;;;5.35;3.85;;;5.40;82.60;;;;;;5034761;28;20029;-59
2023/02/01 09:21:29;;;;;;;4.93;3.75;;;5.40;82.80;;;;;;5037798;28;20124;-59
2023/02/01 09:23:55;;;;;;;5.07;3.63;;;5.40;82.60;;;;;;5035447;28;20108;-60
2023/02/01 09:26:21;;;;;;;4.80;3.55;;;5.40;82.70;;;;;;5037136;28;20195;-60
2023/02/01 09:28:46;;;;;;;6.40;3.80;;;5.40;82.80;;;;;;5033561;28;20037;-60
2023/02/01 09:31:12;;;;;;;6.53;3.40;;;5.40;83.00;;;;;;5036669;28;20061;-60
2023/02/01 09:33:37;;;;;;;5.63;3.80;;;5.40;83.00;;;;;;5038763;28;20029;-61
2023/02/01 09:36:04;;;;;;;5.47;4.03;;;5.40;83.00;;;;;;5037844;28;20076;-61
2023/02/01 09:38:31;;;;;;;7.22;4.45;;;5.40;83.10;;;;;;5037036;28;20048;-61
2023/02/01 09:40:58;;;;;;;4.18;3.60;;;5.40;83.00;;;;;;5037064;28;20080;-59
2023/02/01 09:43:48;;;;;;;5.75;4.13;;;5.50;83.10;;;;;;5033303;28;20080;-58
2023/02/01 09:46:32;;;;;;;6.55;4.38;;;5.50;83.20;;;;;;5035852;28;20080;-61
2023/02/01 09:49:03;;;;;;;5.18;3.97;;;5.50;83.10;;;;;;5032801;28;20026;-60
2023/02/01 09:51:51;;;;;;;6.00;4.00;;;5.50;82.90;;;;;;5036953;28;20071;-61
2023/02/01 09:54:23;;;;;;;6.13;4.40;;;5.50;83.10;;;;;;5030306;28;20076;-60
2023/02/01 09:56:52;;;;;;;6.22;4.13;;;5.50;83.00;;;;;;5029521;28;20025;-61
2023/02/01 09:59:54;;;;;;;5.03;3.90;;;5.60;82.90;;;;;;5031166;28;20136;-59
2023/02/01 10:02:24;;;;;;;6.13;3.92;;;5.60;83.00;;;;;;5036287;28;20501;-60
2023/02/01 10:04:50;;;;;;;5.30;4.20;;;5.60;83.00;;;;;;5034742;28;20056;-59
2023/02/01 10:07:51;;;;;;;5.32;4.30;;;5.60;82.80;;;;;;5036390;28;20045;-60
2023/02/01 10:10:16;;;;;;;5.13;4.10;;;5.70;83.00;;;;;;5035131;28;20045;-60
2023/02/01 10:13:14;;;;;;;7.85;4.60;;;5.70;82.70;;;;;;5034137;28;20033;-60
2023/02/01 10:15:52;;;;;;;5.45;4.45;;;5.70;82.70;;;;;;5030959;28;20053;-61
2023/02/01 10:18:33;;;;;;;6.28;4.05;;;5.70;82.40;;;;;;5033386;28;20052;-61
2023/02/01 10:21:10;;;;;;;6.45;4.47;;;5.70;83.10;;;;;;5031997;28;20945;-61
2023/02/01 10:23:48;;;;;;;6.30;4.25;;;5.80;82.30;;;;;;5034357;28;20163;-61
2023/02/01 10:26:22;;;;;;;5.85;4.55;;;5.80;82.10;;;;;;5034248;28;20042;-61
2023/02/01 10:28:58;;;;;;;6.07;4.20;;;5.80;82.10;;;;;;5034220;28;20394;-59
2023/02/01 10:31:30;;;;;;;6.35;4.70;;;5.80;82.30;;;;;;5032229;28;20603;-59
2023/02/01 10:33:58;;;;;;;5.43;4.60;;;5.80;82.50;;;;;;5035794;28;20033;-59
2023/02/01 10:36:32;;;;;;;9.65;4.90;;;5.80;82.20;;;;;;5034104;28;20460;-61
2023/02/01 10:39:02;;;;;;;4.57;3.70;;;5.90;82.10;;;;;;5036000;28;20036;-60
2023/02/01 10:41:34;;;;;;;7.70;4.50;;;5.90;82.00;;;;;;5035246;28;20037;-59
2023/02/01 10:44:03;;;;;;;5.53;4.00;;;5.90;81.80;;;;;;5035851;28;20090;-60
2023/02/01 10:46:30;;;;;;;8.35;6.10;;;5.90;81.80;;;;;;5035888;28;20038;-60
2023/02/01 10:49:00;;;;;;;5.78;4.82;;;6.00;81.60;;;;;;5034482;28;20052;-59
2023/02/01 10:51:36;;;;;;;7.30;4.50;;;6.00;81.40;;;;;;5032090;28;20040;-61
2023/02/01 10:54:10;;;;;;;6.20;4.57;;;6.00;81.30;;;;;;5032749;28;20034;-61
2023/02/01 10:56:38;;;;;;;6.70;4.57;;;6.00;81.30;;;;;;5034746;28;20056;-60
2023/02/01 10:59:05;;;;;;;5.57;4.45;;;6.10;81.20;;;;;;5034111;28;20031;-62
2023/02/01 11:01:37;;;;;;;5.90;4.38;;;6.10;81.00;;;;;;5030973;28;20040;-61
2023/02/01 11:04:05;;;;;;;6.70;4.53;;;6.10;80.80;;;;;;5034315;28;20068;-61
2023/02/01 11:06:34;;;;;;;8.18;4.65;;;6.20;80.60;;;;;;5032642;28;20032;-60
2023/02/01 11:09:07;;;;;;;7.78;4.70;;;6.20;80.20;;;;;;5033741;28;20037;-61
2023/02/01 11:11:52;;;;;;;6.10;4.70;;;6.20;80.30;;;;;;5030801;28;20033;-61
2023/02/01 11:14:19;;;;;;;;;;;6.30;80.10;;;;;;5033611;28;20048;-61
2023/02/01 11:16:49;;;;;;;6.00;4.30;;;6.30;79.70;;;;;;5030860;28;19924;-60
2023/02/01 11:19:17;;;;;;;7.80;5.10;;;6.40;79.80;;;;;;5033589;28;20571;-59
2023/02/01 11:21:44;;;;;;;5.20;4.32;;;6.40;79.60;;;;;;5037059;28;20034;-61
2023/02/01 11:24:35;;;;;;;8.38;4.82;;;6.40;79.90;;;;;;5037399;28;20033;-61
2023/02/01 11:27:12;;;;;;;6.68;4.30;;;6.40;79.00;;;;;;5026836;28;20103;-60
2023/02/01 11:29:41;;;;;;;9.05;4.43;;;6.40;79.10;;;;;;5032940;28;20580;-60
2023/02/01 11:32:08;;;;;;;7.05;4.50;;;6.40;79.90;;;;;;5033152;28;20521;-61
2023/02/01 11:34:45;;;;;;;9.07;4.90;;;6.40;79.20;;;;;;5034602;28;20045;-61
2023/02/01 11:37:26;;;;;;;6.28;4.72;;;6.50;79.00;;;;;;5029266;28;20033;-60
2023/02/01 11:40:00;;;;;;;7.15;4.72;;;6.50;79.00;;;;;;5034349;28;20044;-59
2023/02/01 11:42:27;;;;;;;6.68;4.70;;;6.40;78.90;;;;;;5033293;28;20750;-58
2023/02/01 11:45:19;;;;;;;5.68;4.70;;;6.40;79.00;;;;;;5036486;28;20036;-61
2023/02/01 11:47:45;;;;;;;7.72;5.20;;;6.40;78.50;;;;;;5031638;28;20049;-60
2023/02/01 11:50:22;;;;;;;7.57;4.95;;;6.40;78.80;;;;;;5034912;28;20040;-58
2023/02/01 11:52:59;;;;;;;5.88;4.72;;;6.40;78.60;;;;;;5035765;28;20044;-60
2023/02/01 11:55:43;;;;;;;6.75;4.88;;;6.40;78.80;;;;;;5030577;28;20094;-60
2023/02/01 11:58:24;;;;;;;6.38;5.07;;;6.40;79.00;;;;;;5031426;28;20041;-58
2023/02/01 12:00:51;;;;;;;7.63;5.00;;;6.40;78.80;;;;;;5030315;28;20037;-58
2023/02/01 12:03:43;;;;;;;6.85;5.03;;;6.30;78.90;;;;;;5032744;28;20046;-60
2023/02/01 12:06:49;;;;;;;6.45;4.55;;;6.30;79.00;;;;;;5034139;28;20069;-59
2023/02/01 12:09:33;;;;;;;5.82;4.20;;;6.40;79.10;;;;;;5033772;28;20041;-58
2023/02/01 12:12:08;;;;;;;6.30;4.70;;;6.40;79.10;;;;;;5033471;28;20022;-60
2023/02/01 12:15:02;;;;;;;6.30;4.38;;;6.40;79.20;;;;;;5034481;28;20037;-59
2023/02/01 12:17:37;;;;;;;7.22;4.45;;;6.40;79.00;;;;;;5029056;28;20509;-59
2023/02/01 12:20:21;;;;;;;;;;;6.40;79.20;;;;;;5034681;28;20029;-59
2023/02/01 12:23:17;;;;;;;7.25;4.40;;;6.40;79.00;;;;;;5032689;28;19921;-59
2023/02/01 12:25:54;;;;;;;6.90;4.50;;;6.40;79.00;;;;;;5032314;28;20160;-60
2023/02/01 12:29:08;;;;;;;5.57;3.70;;;6.40;78.90;;;;;;5031954;28;20073;-58
2023/02/01 12:31:40;;;;;;;5.80;4.13;;;6.40;78.60;;;;;;5030446;28;20065;-61
2023/02/01 12:34:15;;;;;;;6.88;4.43;;;6.40;79.00;;;;;;5031300;28;20390;-59
2023/02/01 12:36:57;;;;;;;7.65;4.50;;;6.40;79.00;;;;;;5033595;28;20076;-60
2023/02/01 12:39:37;;;;;;;5.47;4.00;;;6.40;79.00;;;;;;5032511;28;20060;-60
2023/02/01 12:42:24;;;;;;;6.22;4.13;;;6.40;79.30;;;;;;5032087;28;21846;-60
2023/02/01 12:45:06;;;;;;;7.38;4.60;;;6.40;79.70;;;;;;5033990;28;20562;-61
2023/02/01 12:47:38;;;;;;;6.43;4.40;;;6.40;80.20;;;;;;5031156;28;20095;-60
2023/02/01 12:50:31;;;;;;;5.55;4.22;;;6.40;80.20;;;;;;5031797;28;20071;-60
2023/02/01 12:53:23;;;;;;;6.78;4.20;;;6.40;80.00;;;;;;5030862;28;20420;-61
2023/02/01 12:56:00;;;;;;;6.88;4.18;;;6.40;79.90;;;;;;5020799;28;20048;-61
2023/02/01 12:58:39;;;;;;;8.13;4.20;;;6.40;79.90;;;;;;5028850;28;20411;-61
2023/02/01 13:01:17;;;;;;;6.85;3.95;;;6.40;79.90;;;;;;5036410;28;20063;-58
2023/02/01 13:04:25;;;;;;;4.97;3.78;;;6.40;79.60;;;;;;5036429;28;20583;-58
2023/02/01 13:06:59;;;;;;;6.45;3.85;;;6.50;79.30;;;;;;5022919;28;20044;-61
2023/02/01 13:09:26;;;;;;;5.78;4.13;;;6.50;79.30;;;;;;5037107;28;20040;-60
2023/02/01 13:11:58;;;;;;;5.72;4.07;;;6.50;79.30;;;;;;5030771;28;20393;-60
2023/02/01 13:14:46;;;;;;;7.28;4.03;;;6.50;79.20;;;;;;5031466;28;20033;-61
2023/02/01 13:17:20;;;;;;;6.18;3.60;;;6.50;79.10;;;;;;5035532;28;20508;-60
2023/02/01 13:19:59;;;;;;;8.00;4.00;;;6.50;79.20;;;;;;5032366;28;20088;-59
2023/02/01 13:22:34;;;;;;;5.38;3.80;;;6.50;79.00;;;;;;5033328;28;20044;-60
2023/02/01 13:25:04;;;;;;;4.95;3.63;;;6.50;79.10;;;;;;5032817;28;20397;-59
2023/02/01 13:27:32;;;;;;;6.63;4.40;;;6.60;79.20;;;;;;5028541;28;20037;-61
2023/02/01 13:30:07;;;;;;;6.10;4.00;;;6.60;79.00;;;;;;5032889;28;20037;-59
2023/02/01 13:32:35;;;;;;;6.97;4.15;;;6.60;78.80;;;;;;5032037;28;20146;-59
2023/02/01 13:35:26;;;;;;;4.72;3.97;;;6.60;78.80;;;;;;5031151;28;20083;-61
2023/02/01 13:38:28;;;;;;;5.72;4.20;;;6.60;78.60;;;;;;5032955;28;20508;-61
2023/02/01 13:41:12;;;;;;;4.95;4.00;;;6.60;78.80;;;;;;5031467;28;20417;-61
2023/02/01 13:43:41;;;;;;;4.77;3.10;;;6.60;78.90;;;;;;5030147;28;20037;-59
2023/02/01 13:46:14;;;;;;;5.43;3.17;;;6.60;79.00;;;;;;5036646;28;20378;-59